This is the latest recevied weather packets stored in our database for station/object W8UFO-13. If no packets are shown the sender has not sent any weather packets the latest 1 day(s).
| Time | Temp. | Humidity | Pressure | Rain* | Wind** | Luminosity | Snow |
|---|---|---|---|---|---|---|---|
| 1778075957 | 17.78° C | 95% | 1013.8 hPa | 5.59 mm | - | - | - |
| 1778075657 | 17.78° C | 96% | 1013.6 hPa | 6.6 mm | - | - | - |
| 1778075357 | 17.22° C | 96% | 1013.4 hPa | 6.6 mm | - | - | - |
| 1778075057 | 17.78° C | 96% | 1013.5 hPa | 6.6 mm | - | - | - |
| 1778074157 | 17.22° C | 95% | 1013.4 hPa | 7.87 mm | - | - | - |
| 1778073857 | 17.78° C | 95% | 1013.8 hPa | 7.62 mm | - | - | - |
| 1778073257 | 17.78° C | 95% | 1013.5 hPa | 6.6 mm | - | - | - |
| 1778072657 | 17.78° C | 94% | 1013.7 hPa | 6.6 mm | - | - | - |
| 1778071757 | 17.78° C | 94% | 1013.9 hPa | 5.33 mm | - | - | - |
| 1778071157 | 17.78° C | 93% | 1013.6 hPa | 4.83 mm | - | - | - |
| 1778070557 | 17.78° C | 93% | 1013.4 hPa | 3.81 mm | - | - | - |
| 1778069957 | 18.33° C | 91% | 1013.3 hPa | 3.05 mm | - | - | - |
| 1778069357 | 18.33° C | 91% | 1013.5 hPa | 2.54 mm | - | - | - |
| 1778068157 | 18.89° C | 87% | 1013.2 hPa | 1.52 mm | - | - | - |
| 1778067257 | 19.44° C | 85% | 1012.8 hPa | 0.51 mm | - | - | - |
| 1778066957 | 19.44° C | 85% | 1012.8 hPa | 0.25 mm | - | - | - |
| 1778065457 | 20° C | 81% | 1012.5 hPa | 0.25 mm | - | - | - |
| 1778064257 | 20.56° C | 75% | 1012.3 hPa | 0 mm | - | - | - |
| 1778063657 | 21.11° C | 73% | 1012.4 hPa | 0 mm | - | - | - |
| 1778063057 | 21.11° C | 70% | 1012 hPa | 0 mm | - | - | - |
| 1778061857 | 21.11° C | 69% | 1011.5 hPa | 0 mm | - | - | - |
| 1778061557 | 21.11° C | 69% | 1011.6 hPa | 0 mm | - | - | - |
| 1778059757 | 21.67° C | 67% | 1011.9 hPa | 0 mm | - | - | - |
| 1778058857 | 21.67° C | 67% | 1011.7 hPa | 0 mm | - | - | - |
| 1778057957 | 21.67° C | 66% | 1011.8 hPa | 0 mm | - | - | - |
* Rain latest hour (hover to see other rain measurements)
** Current wind speed in m/s (hover to see current wind gust speed)